sensor_id;sensor_type;location;lat;lon;timestamp;pressure;altitude;pressure_sealevel;temperature;humidity
63808;BME280;49961;43.970;22.868;2023-03-31T00:00:43;101469.38;;;11.34;100.00
63808;BME280;49961;43.970;22.868;2023-03-31T00:01:43;101427.53;;;11.22;100.00
63808;BME280;49961;43.970;22.868;2023-03-31T00:02:43;101442.88;;;11.30;100.00
63808;BME280;49961;43.970;22.868;2023-03-31T00:03:45;101258.28;;;10.12;100.00
63808;BME280;49961;43.970;22.868;2023-03-31T00:04:45;101440.00;;;11.37;100.00
63808;BME280;49961;43.970;22.868;2023-03-31T00:05:59;101440.00;;;11.37;100.00
63808;BME280;49961;43.970;22.868;2023-03-31T00:06:59;101437.91;;;11.44;100.00
63808;BME280;49961;43.970;22.868;2023-03-31T00:08:00;101446.59;;;11.46;100.00
63808;BME280;49961;43.970;22.868;2023-03-31T00:09:00;101439.91;;;11.44;100.00
63808;BME280;49961;43.970;22.868;2023-03-31T00:10:01;101443.47;;;11.44;100.00
63808;BME280;49961;43.970;22.868;2023-03-31T00:11:03;101445.88;;;11.42;100.00
63808;BME280;49961;43.970;22.868;2023-03-31T00:12:04;101440.31;;;11.42;100.00
63808;BME280;49961;43.970;22.868;2023-03-31T00:13:05;101444.72;;;11.40;100.00
63808;BME280;49961;43.970;22.868;2023-03-31T00:14:06;101436.44;;;11.36;100.00
63808;BME280;49961;43.970;22.868;2023-03-31T00:15:07;101440.00;;;11.37;100.00
63808;BME280;49961;43.970;22.868;2023-03-31T00:16:08;101438.81;;;11.38;100.00
63808;BME280;49961;43.970;22.868;2023-03-31T00:17:09;101447.19;;;11.34;100.00
63808;BME280;49961;43.970;22.868;2023-03-31T00:18:10;101429.09;;;11.23;100.00
63808;BME280;49961;43.970;22.868;2023-03-31T00:19:13;101447.19;;;11.34;100.00
63808;BME280;49961;43.970;22.868;2023-03-31T00:20:19;101447.13;;;11.38;100.00
63808;BME280;49961;43.970;22.868;2023-03-31T00:21:24;101443.94;;;11.39;100.00
63808;BME280;49961;43.970;22.868;2023-03-31T00:22:25;101427.91;;;11.24;100.00
63808;BME280;49961;43.970;22.868;2023-03-31T00:23:26;101372.47;;;10.90;100.00
63808;BME280;49961;43.970;22.868;2023-03-31T00:24:31;101436.38;;;11.40;100.00
63808;BME280;49961;43.970;22.868;2023-03-31T00:25:32;101442.34;;;11.38;100.00
63808;BME280;49961;43.970;22.868;2023-03-31T00:26:33;101443.50;;;11.41;100.00
63808;BME280;49961;43.970;22.868;2023-03-31T00:27:34;101445.09;;;11.42;100.00
63808;BME280;49961;43.970;22.868;2023-03-31T00:28:34;101437.13;;;11.44;100.00
63808;BME280;49961;43.970;22.868;2023-03-31T00:29:35;101439.06;;;11.47;100.00
63808;BME280;49961;43.970;22.868;2023-03-31T00:30:35;101438.28;;;11.46;100.00
63808;BME280;49961;43.970;22.868;2023-03-31T00:31:36;101436.72;;;11.45;100.00
63808;BME280;49961;43.970;22.868;2023-03-31T00:32:38;101429.38;;;11.32;100.00
63808;BME280;49961;43.970;22.868;2023-03-31T00:33:38;101355.97;;;10.80;100.00
63808;BME280;49961;43.970;22.868;2023-03-31T00:34:39;101443.09;;;11.42;100.00
63808;BME280;49961;43.970;22.868;2023-03-31T00:35:40;101415.53;;;11.28;100.00
63808;BME280;49961;43.970;22.868;2023-03-31T00:36:40;101453.31;;;11.49;100.00
63808;BME280;49961;43.970;22.868;2023-03-31T00:37:46;101439.91;;;11.44;100.00
63808;BME280;49961;43.970;22.868;2023-03-31T00:38:47;101445.09;;;11.42;100.00
63808;BME280;49961;43.970;22.868;2023-03-31T00:39:48;101439.53;;;11.42;100.00
63808;BME280;49961;43.970;22.868;2023-03-31T00:40:48;101441.13;;;11.43;100.00
63808;BME280;49961;43.970;22.868;2023-03-31T00:41:49;101436.31;;;11.43;100.00
63808;BME280;49961;43.970;22.868;2023-03-31T00:42:50;101436.31;;;11.43;100.00
63808;BME280;49961;43.970;22.868;2023-03-31T00:44:07;101437.94;;;11.41;100.00
63808;BME280;49961;43.970;22.868;2023-03-31T00:46:23;101434.25;;;11.24;100.00
63808;BME280;49961;43.970;22.868;2023-03-31T00:47:27;101435.81;;;11.25;100.00
63808;BME280;49961;43.970;22.868;2023-03-31T00:48:30;101430.72;;;11.20;100.00
63808;BME280;49961;43.970;22.868;2023-03-31T00:50:48;101412.88;;;11.21;100.00
63808;BME280;49961;43.970;22.868;2023-03-31T00:51:51;101421.13;;;11.25;100.00
63808;BME280;49961;43.970;22.868;2023-03-31T00:53:00;101418.78;;;11.23;100.00
63808;BME280;49961;43.970;22.868;2023-03-31T00:54:04;101417.22;;;11.22;100.00
63808;BME280;49961;43.970;22.868;2023-03-31T00:55:09;101422.00;;;11.22;100.00
63808;BME280;49961;43.970;22.868;2023-03-31T00:56:13;101425.13;;;11.24;100.00
63808;BME280;49961;43.970;22.868;2023-03-31T00:57:15;101420.38;;;11.24;100.00
63808;BME280;49961;43.970;22.868;2023-03-31T00:58:16;101420.66;;;11.30;100.00
63808;BME280;49961;43.970;22.868;2023-03-31T00:59:25;101402.97;;;11.20;100.00
63808;BME280;49961;43.970;22.868;2023-03-31T01:00:27;101413.91;;;11.31;100.00
63808;BME280;49961;43.970;22.868;2023-03-31T01:01:29;101416.69;;;11.31;100.00
63808;BME280;49961;43.970;22.868;2023-03-31T01:02:30;101423.03;;;11.31;100.00
63808;BME280;49961;43.970;22.868;2023-03-31T01:03:31;101430.94;;;11.33;100.00
63808;BME280;49961;43.970;22.868;2023-03-31T01:04:37;101427.75;;;11.34;100.00
63808;BME280;49961;43.970;22.868;2023-03-31T01:05:44;101425.75;;;11.35;100.00
63808;BME280;49961;43.970;22.868;2023-03-31T01:06:58;101421.06;;;11.32;100.00
63808;BME280;49961;43.970;22.868;2023-03-31T01:08:00;101421.06;;;11.28;100.00
63808;BME280;49961;43.970;22.868;2023-03-31T01:09:01;101409.28;;;11.24;100.00
63808;BME280;49961;43.970;22.868;2023-03-31T01:10:06;101426.97;;;11.34;100.00
63808;BME280;49961;43.970;22.868;2023-03-31T01:11:09;101335.28;;;10.88;100.00
63808;BME280;49961;43.970;22.868;2023-03-31T01:12:11;101416.59;;;11.38;100.00
63808;BME280;49961;43.970;22.868;2023-03-31T01:13:14;101308.59;;;10.71;100.00
63808;BME280;49961;43.970;22.868;2023-03-31T01:14:15;101418.56;;;11.37;100.00
63808;BME280;49961;43.970;22.868;2023-03-31T01:15:16;101426.16;;;11.33;100.00
63808;BME280;49961;43.970;22.868;2023-03-31T01:16:17;101415.91;;;11.30;100.00
63808;BME280;49961;43.970;22.868;2023-03-31T01:17:19;101386.06;;;11.11;100.00
63808;BME280;49961;43.970;22.868;2023-03-31T01:18:20;101332.22;;;10.79;100.00
63808;BME280;49961;43.970;22.868;2023-03-31T01:19:35;101419.00;;;11.36;100.00
63808;BME280;49961;43.970;22.868;2023-03-31T01:21:05;101407.94;;;11.32;100.00
63808;BME280;49961;43.970;22.868;2023-03-31T01:22:44;101408.00;;;11.29;100.00
63808;BME280;49961;43.970;22.868;2023-03-31T01:24:01;101407.59;;;11.30;100.00
63808;BME280;49961;43.970;22.868;2023-03-31T01:25:35;101411.19;;;11.27;100.00
63808;BME280;49961;43.970;22.868;2023-03-31T01:46:36;101366.34;;;11.06;100.00
63808;BME280;49961;43.970;22.868;2023-03-31T01:47:47;101392.25;;;11.22;100.00
63808;BME280;49961;43.970;22.868;2023-03-31T01:49:03;101390.63;;;11.25;100.00
63808;BME280;49961;43.970;22.868;2023-03-31T01:50:16;101389.41;;;11.26;100.00
63808;BME280;49961;43.970;22.868;2023-03-31T01:52:36;101396.16;;;11.25;100.00
63808;BME280;49961;43.970;22.868;2023-03-31T01:57:17;101398.13;;;11.28;100.00
63808;BME280;49961;43.970;22.868;2023-03-31T01:58:22;101396.91;;;11.29;100.00
63808;BME280;49961;43.970;22.868;2023-03-31T01:59:33;101396.09;;;11.32;100.00
63808;BME280;49961;43.970;22.868;2023-03-31T02:00:38;101392.09;;;11.33;100.00
63808;BME280;49961;43.970;22.868;2023-03-31T02:02:47;101372.00;;;11.25;100.00
63808;BME280;49961;43.970;22.868;2023-03-31T02:03:57;101384.34;;;11.47;100.00
63808;BME280;49961;43.970;22.868;2023-03-31T02:05:04;101380.78;;;11.47;100.00
63808;BME280;49961;43.970;22.868;2023-03-31T02:06:16;101388.25;;;11.50;100.00
63808;BME280;49961;43.970;22.868;2023-03-31T02:07:25;101393.41;;;11.51;100.00
63808;BME280;49961;43.970;22.868;2023-03-31T02:08:35;101385.88;;;11.52;100.00
63808;BME280;49961;43.970;22.868;2023-03-31T02:09:41;101389.75;;;11.54;100.00
63808;BME280;49961;43.970;22.868;2023-03-31T02:10:44;101379.88;;;11.53;100.00
63808;BME280;49961;43.970;22.868;2023-03-31T02:11:46;101375.72;;;11.42;100.00
63808;BME280;49961;43.970;22.868;2023-03-31T02:12:49;101385.81;;;11.55;100.00
63808;BME280;49961;43.970;22.868;2023-03-31T02:13:52;101379.81;;;11.57;100.00
63808;BME280;49961;43.970;22.868;2023-03-31T02:14:56;101357.44;;;11.44;100.00
63808;BME280;49961;43.970;22.868;2023-03-31T02:16:01;101386.50;;;11.63;100.00
63808;BME280;49961;43.970;22.868;2023-03-31T02:17:06;101385.31;;;11.64;100.00
63808;BME280;49961;43.970;22.868;2023-03-31T02:18:10;101388.91;;;11.61;100.00
63808;BME280;49961;43.970;22.868;2023-03-31T02:19:15;101384.94;;;11.58;100.00
63808;BME280;49961;43.970;22.868;2023-03-31T02:20:19;101383.00;;;11.59;100.00
63808;BME280;49961;43.970;22.868;2023-03-31T02:21:21;101317.50;;;11.12;100.00
63808;BME280;49961;43.970;22.868;2023-03-31T02:22:22;101385.00;;;11.55;100.00
63808;BME280;49961;43.970;22.868;2023-03-31T02:23:26;101383.09;;;11.52;100.00
63808;BME280;49961;43.970;22.868;2023-03-31T02:24:32;101389.06;;;11.50;100.00
63808;BME280;49961;43.970;22.868;2023-03-31T02:25:40;101391.84;;;11.50;100.00
63808;BME280;49961;43.970;22.868;2023-03-31T02:26:55;101279.50;;;10.82;100.00
63808;BME280;49961;43.970;22.868;2023-03-31T02:28:02;101403.41;;;11.45;100.00
63808;BME280;49961;43.970;22.868;2023-03-31T02:29:05;101384.81;;;11.42;100.00
63808;BME280;49961;43.970;22.868;2023-03-31T02:30:06;101294.16;;;10.83;100.00
63808;BME280;49961;43.970;22.868;2023-03-31T02:32:40;101371.34;;;11.41;100.00
63808;BME280;49961;43.970;22.868;2023-03-31T02:33:41;101371.34;;;11.41;100.00
63808;BME280;49961;43.970;22.868;2023-03-31T02:34:41;101374.13;;;11.41;100.00
63808;BME280;49961;43.970;22.868;2023-03-31T02:35:42;101373.34;;;11.40;100.00
63808;BME280;49961;43.970;22.868;2023-03-31T02:36:43;101367.41;;;11.38;100.00
63808;BME280;49961;43.970;22.868;2023-03-31T02:37:47;101369.78;;;11.40;100.00
63808;BME280;49961;43.970;22.868;2023-03-31T02:39:28;101374.50;;;11.43;100.00
63808;BME280;49961;43.970;22.868;2023-03-31T02:40:30;101367.00;;;11.40;100.00
63808;BME280;49961;43.970;22.868;2023-03-31T02:41:31;101371.00;;;11.39;100.00
63808;BME280;49961;43.970;22.868;2023-03-31T02:42:31;101378.22;;;11.33;100.00
63808;BME280;49961;43.970;22.868;2023-03-31T02:43:32;101382.69;;;11.27;100.00
63808;BME280;49961;43.970;22.868;2023-03-31T02:44:37;101376.28;;;11.30;100.00
63808;BME280;49961;43.970;22.868;2023-03-31T02:45:45;101376.22;;;11.33;100.00
63808;BME280;49961;43.970;22.868;2023-03-31T02:46:46;101383.78;;;11.33;100.00
63808;BME280;49961;43.970;22.868;2023-03-31T02:47:47;101379.44;;;11.32;100.00
63808;BME280;49961;43.970;22.868;2023-03-31T02:48:52;101310.31;;;10.88;100.00
63808;BME280;49961;43.970;22.868;2023-03-31T02:49:56;101385.47;;;11.23;100.00
63808;BME280;49961;43.970;22.868;2023-03-31T02:51:15;101383.84;;;11.26;100.00
63808;BME280;49961;43.970;22.868;2023-03-31T03:02:16;101358.09;;;11.52;100.00
63808;BME280;49961;43.970;22.868;2023-03-31T03:03:30;101351.41;;;11.49;100.00
63808;BME280;49961;43.970;22.868;2023-03-31T03:04:50;101291.88;;;11.04;100.00
63808;BME280;49961;43.970;22.868;2023-03-31T03:09:22;101295.00;;;11.06;100.00
63808;BME280;49961;43.970;22.868;2023-03-31T03:12:59;101351.75;;;11.51;100.00
63808;BME280;49961;43.970;22.868;2023-03-31T03:15:29;101336.84;;;11.42;100.00
63808;BME280;49961;43.970;22.868;2023-03-31T03:16:38;101342.22;;;11.52;100.00
63808;BME280;49961;43.970;22.868;2023-03-31T03:17:44;101336.66;;;11.52;100.00
63808;BME280;49961;43.970;22.868;2023-03-31T03:18:59;101330.78;;;11.50;100.00
63808;BME280;49961;43.970;22.868;2023-03-31T03:20:01;101336.31;;;11.50;100.00
63808;BME280;49961;43.970;22.868;2023-03-31T03:21:07;101336.41;;;11.43;100.00
63808;BME280;49961;43.970;22.868;2023-03-31T03:22:08;101353.25;;;11.56;100.00
63808;BME280;49961;43.970;22.868;2023-03-31T03:23:08;101337.00;;;11.58;100.00
63808;BME280;49961;43.970;22.868;2023-03-31T03:24:09;101337.00;;;11.58;100.00
63808;BME280;49961;43.970;22.868;2023-03-31T03:25:12;101333.03;;;11.59;100.00
63808;BME280;49961;43.970;22.868;2023-03-31T03:26:13;101334.94;;;11.62;100.00
63808;BME280;49961;43.970;22.868;2023-03-31T03:27:13;101333.75;;;11.63;100.00
63808;BME280;49961;43.970;22.868;2023-03-31T03:28:14;101331.75;;;11.63;100.00
63808;BME280;49961;43.970;22.868;2023-03-31T03:29:14;101328.66;;;11.58;100.00
63808;BME280;49961;43.970;22.868;2023-03-31T03:30:15;101325.06;;;11.61;100.00
63808;BME280;49961;43.970;22.868;2023-03-31T03:31:16;101248.56;;;11.10;100.00
63808;BME280;49961;43.970;22.868;2023-03-31T03:32:16;101308.44;;;11.57;100.00
63808;BME280;49961;43.970;22.868;2023-03-31T03:33:17;101319.88;;;11.63;100.00
63808;BME280;49961;43.970;22.868;2023-03-31T03:34:18;101319.88;;;11.63;100.00
63808;BME280;49961;43.970;22.868;2023-03-31T03:35:19;101317.88;;;11.63;100.00
63808;BME280;49961;43.970;22.868;2023-03-31T03:36:19;101319.88;;;11.63;100.00
63808;BME280;49961;43.970;22.868;2023-03-31T03:37:20;101318.28;;;11.62;100.00
63808;BME280;49961;43.970;22.868;2023-03-31T03:38:21;101312.00;;;11.58;100.00
63808;BME280;49961;43.970;22.868;2023-03-31T03:39:21;101297.53;;;11.47;100.00
63808;BME280;49961;43.970;22.868;2023-03-31T03:40:22;101313.94;;;11.61;100.00
63808;BME280;49961;43.970;22.868;2023-03-31T03:41:22;101330.59;;;11.61;100.00
63808;BME280;49961;43.970;22.868;2023-03-31T03:42:23;101241.41;;;11.13;100.00
63808;BME280;49961;43.970;22.868;2023-03-31T03:43:23;101319.44;;;11.64;100.00
63808;BME280;49961;43.970;22.868;2023-03-31T03:44:24;101316.25;;;11.66;100.00
63808;BME280;49961;43.970;22.868;2023-03-31T03:45:24;101313.06;;;11.67;100.00
63808;BME280;49961;43.970;22.868;2023-03-31T03:46:25;101322.19;;;11.68;100.00
63808;BME280;49961;43.970;22.868;2023-03-31T03:47:27;101315.03;;;11.67;100.00
63808;BME280;49961;43.970;22.868;2023-03-31T03:48:27;101319.81;;;11.66;100.00
63808;BME280;49961;43.970;22.868;2023-03-31T03:49:27;101322.19;;;11.68;100.00
63808;BME280;49961;43.970;22.868;2023-03-31T03:50:28;101319.81;;;11.66;100.00
63808;BME280;49961;43.970;22.868;2023-03-31T03:51:28;101313.47;;;11.66;100.00
63808;BME280;49961;43.970;22.868;2023-03-31T03:52:29;101316.25;;;11.66;100.00
63808;BME280;49961;43.970;22.868;2023-03-31T03:53:29;101308.78;;;11.63;100.00
63808;BME280;49961;43.970;22.868;2023-03-31T03:54:30;101317.09;;;11.63;100.00
63808;BME280;49961;43.970;22.868;2023-03-31T03:55:30;101314.59;;;11.68;100.00
63808;BME280;49961;43.970;22.868;2023-03-31T03:56:31;101305.06;;;11.69;100.00
63808;BME280;49961;43.970;22.868;2023-03-31T03:57:31;101305.88;;;11.70;100.00
63808;BME280;49961;43.970;22.868;2023-03-31T03:58:31;101307.00;;;11.72;100.00
63808;BME280;49961;43.970;22.868;2023-03-31T03:59:32;101297.88;;;11.72;100.00
63808;BME280;49961;43.970;22.868;2023-03-31T04:00:32;101303.03;;;11.73;100.00
63808;BME280;49961;43.970;22.868;2023-03-31T04:01:33;101273.56;;;11.56;100.00
63808;BME280;49961;43.970;22.868;2023-03-31T04:02:33;101294.44;;;11.64;100.00
63808;BME280;49961;43.970;22.868;2023-03-31T04:03:34;101301.31;;;11.56;100.00
63808;BME280;49961;43.970;22.868;2023-03-31T04:04:34;101294.69;;;11.50;100.00
63808;BME280;49961;43.970;22.868;2023-03-31T04:05:35;101287.50;;;11.53;100.00
63808;BME280;49961;43.970;22.868;2023-03-31T04:06:36;101292.59;;;11.54;100.00
63808;BME280;49961;43.970;22.868;2023-03-31T04:07:36;101279.66;;;11.48;100.00
63808;BME280;49961;43.970;22.868;2023-03-31T04:08:37;101299.72;;;11.59;100.00
63808;BME280;49961;43.970;22.868;2023-03-31T04:09:37;101300.78;;;11.65;100.00
63808;BME280;49961;43.970;22.868;2023-03-31T04:10:43;101147.00;;;10.70;100.00
63808;BME280;49961;43.970;22.868;2023-03-31T04:11:44;101293.75;;;11.60;100.00
63808;BME280;49961;43.970;22.868;2023-03-31T04:12:45;101293.31;;;11.62;100.00
63808;BME280;49961;43.970;22.868;2023-03-31T04:13:45;101304.00;;;11.63;100.00
63808;BME280;49961;43.970;22.868;2023-03-31T04:14:46;101299.31;;;11.60;100.00
63808;BME280;49961;43.970;22.868;2023-03-31T04:15:46;101248.63;;;11.30;100.00
63808;BME280;49961;43.970;22.868;2023-03-31T04:16:47;101220.41;;;11.12;100.00
63808;BME280;49961;43.970;22.868;2023-03-31T04:17:47;101244.63;;;11.34;100.00
63808;BME280;49961;43.970;22.868;2023-03-31T04:18:53;101295.50;;;11.74;100.00
63808;BME280;49961;43.970;22.868;2023-03-31T04:20:05;101300.25;;;11.73;100.00
63808;BME280;49961;43.970;22.868;2023-03-31T04:21:11;101296.63;;;11.76;100.00
63808;BME280;49961;43.970;22.868;2023-03-31T04:22:14;101290.66;;;11.78;100.00
63808;BME280;49961;43.970;22.868;2023-03-31T04:23:20;101285.88;;;11.78;100.00
63808;BME280;49961;43.970;22.868;2023-03-31T04:24:22;101279.84;;;11.83;100.00
63808;BME280;49961;43.970;22.868;2023-03-31T04:25:29;101285.31;;;11.87;100.00
63808;BME280;49961;43.970;22.868;2023-03-31T04:26:33;101275.72;;;11.91;100.00
63808;BME280;49961;43.970;22.868;2023-03-31T04:27:50;101279.72;;;11.90;100.00
63808;BME280;49961;43.970;22.868;2023-03-31T04:28:53;101144.72;;;11.11;100.00
63808;BME280;49961;43.970;22.868;2023-03-31T04:29:57;101266.53;;;11.94;100.00
63808;BME280;49961;43.970;22.868;2023-03-31T04:30:58;101264.53;;;11.95;100.00
63808;BME280;49961;43.970;22.868;2023-03-31T04:31:58;101270.44;;;11.97;100.00
63808;BME280;49961;43.970;22.868;2023-03-31T04:33:01;101257.34;;;11.97;100.00
63808;BME280;49961;43.970;22.868;2023-03-31T04:34:01;101258.91;;;11.98;100.00
63808;BME280;49961;43.970;22.868;2023-03-31T04:35:06;101258.41;;;12.03;100.00
63808;BME280;49961;43.970;22.868;2023-03-31T04:36:07;101271.09;;;12.04;100.00
63808;BME280;49961;43.970;22.868;2023-03-31T04:37:17;101172.84;;;11.56;100.00
63808;BME280;49961;43.970;22.868;2023-03-31T04:38:25;101256.63;;;12.13;100.00
63808;BME280;49961;43.970;22.868;2023-03-31T04:39:26;101264.13;;;12.16;100.00
63808;BME280;49961;43.970;22.868;2023-03-31T04:40:29;101249.16;;;12.10;100.00
63808;BME280;49961;43.970;22.868;2023-03-31T04:41:30;101255.72;;;12.19;100.00
63808;BME280;49961;43.970;22.868;2023-03-31T04:42:30;101258.06;;;12.21;100.00
63808;BME280;49961;43.970;22.868;2023-03-31T04:43:31;101254.44;;;12.24;100.00
63808;BME280;49961;43.970;22.868;2023-03-31T04:44:31;101131.41;;;11.45;100.00
63808;BME280;49961;43.970;22.868;2023-03-31T04:45:32;101260.25;;;12.29;100.00
63808;BME280;49961;43.970;22.868;2023-03-31T04:46:33;101260.63;;;12.31;100.00
63808;BME280;49961;43.970;22.868;2023-03-31T04:47:34;101261.31;;;12.35;100.00
63808;BME280;49961;43.970;22.868;2023-03-31T04:48:34;101258.13;;;12.37;100.00
63808;BME280;49961;43.970;22.868;2023-03-31T04:49:35;101171.91;;;11.85;100.00
63808;BME280;49961;43.970;22.868;2023-03-31T04:50:36;101216.88;;;12.16;100.00
63808;BME280;49961;43.970;22.868;2023-03-31T04:51:37;101253.13;;;12.48;100.00
63808;BME280;49961;43.970;22.868;2023-03-31T04:52:37;101251.13;;;12.48;100.00
63808;BME280;49961;43.970;22.868;2023-03-31T04:53:39;101253.31;;;12.57;100.00
63808;BME280;49961;43.970;22.868;2023-03-31T04:54:40;101258.88;;;12.57;100.00
63808;BME280;49961;43.970;22.868;2023-03-31T04:55:40;101252.47;;;12.60;100.00
63808;BME280;49961;43.970;22.868;2023-03-31T04:56:41;101144.31;;;11.94;100.00
63808;BME280;49961;43.970;22.868;2023-03-31T04:57:41;101233.44;;;12.58;100.00
63808;BME280;49961;43.970;22.868;2023-03-31T04:58:42;101235.19;;;12.68;100.00
63808;BME280;49961;43.970;22.868;2023-03-31T04:59:43;101255.53;;;12.81;100.00
63808;BME280;49961;43.970;22.868;2023-03-31T05:00:44;101260.97;;;12.88;100.00
63808;BME280;49961;43.970;22.868;2023-03-31T05:01:44;101258.84;;;12.92;100.00
63808;BME280;49961;43.970;22.868;2023-03-31T05:02:45;101255.94;;;12.99;100.00
63808;BME280;49961;43.970;22.868;2023-03-31T05:03:46;101260.72;;;12.99;100.00
63808;BME280;49961;43.970;22.868;2023-03-31T05:04:47;101259.44;;;13.03;100.00
63808;BME280;49961;43.970;22.868;2023-03-31T05:05:47;101256.13;;;13.08;100.00
63808;BME280;49961;43.970;22.868;2023-03-31T05:06:47;101256.38;;;13.14;100.00
63808;BME280;49961;43.970;22.868;2023-03-31T05:07:48;101254.31;;;13.18;100.00
63808;BME280;49961;43.970;22.868;2023-03-31T05:08:48;101256.66;;;13.19;100.00
63808;BME280;49961;43.970;22.868;2023-03-31T05:09:49;101250.66;;;13.21;100.00
63808;BME280;49961;43.970;22.868;2023-03-31T05:10:49;101253.69;;;13.26;100.00
63808;BME280;49961;43.970;22.868;2023-03-31T05:11:50;101259.53;;;13.32;100.00
63808;BME280;49961;43.970;22.868;2023-03-31T05:12:50;101257.88;;;13.34;100.00
63808;BME280;49961;43.970;22.868;2023-03-31T05:13:51;101258.63;;;13.35;100.00
63808;BME280;49961;43.970;22.868;2023-03-31T05:14:52;101265.00;;;13.35;100.00
63808;BME280;49961;43.970;22.868;2023-03-31T05:15:53;101260.56;;;13.38;100.00
63808;BME280;49961;43.970;22.868;2023-03-31T05:16:54;101148.19;;;12.68;100.00
63808;BME280;49961;43.970;22.868;2023-03-31T05:17:57;101265.78;;;13.52;100.00
63808;BME280;49961;43.970;22.868;2023-03-31T05:18:58;101256.53;;;13.55;100.00
63808;BME280;49961;43.970;22.868;2023-03-31T05:19:59;101272.28;;;13.61;100.00
63808;BME280;49961;43.970;22.868;2023-03-31T05:21:16;101156.91;;;13.02;100.00
63808;BME280;49961;43.970;22.868;2023-03-31T05:22:17;101259.28;;;13.71;100.00
63808;BME280;49961;43.970;22.868;2023-03-31T05:23:19;101253.19;;;13.76;100.00
63808;BME280;49961;43.970;22.868;2023-03-31T05:24:20;101258.66;;;13.79;100.00
63808;BME280;49961;43.970;22.868;2023-03-31T05:25:20;101235.59;;;13.79;100.00
63808;BME280;49961;43.970;22.868;2023-03-31T05:26:22;101244.56;;;13.86;100.00
63808;BME280;49961;43.970;22.868;2023-03-31T05:27:24;101241.66;;;13.90;100.00
63808;BME280;49961;43.970;22.868;2023-03-31T05:28:24;101245.03;;;13.97;100.00
63808;BME280;49961;43.970;22.868;2023-03-31T05:29:25;101220.34;;;13.83;100.00
63808;BME280;49961;43.970;22.868;2023-03-31T05:30:26;101095.88;;;13.11;100.00
63808;BME280;49961;43.970;22.868;2023-03-31T05:31:27;101202.19;;;13.79;100.00
63808;BME280;49961;43.970;22.868;2023-03-31T05:32:28;101235.22;;;14.21;100.00
63808;BME280;49961;43.970;22.868;2023-03-31T05:33:29;101222.63;;;14.29;100.00
63808;BME280;49961;43.970;22.868;2023-03-31T05:34:29;101225.31;;;14.33;100.00
63808;BME280;49961;43.970;22.868;2023-03-31T05:35:30;101221.22;;;14.37;100.00
63808;BME280;49961;43.970;22.868;2023-03-31T05:36:30;101215.09;;;14.42;100.00
63808;BME280;49961;43.970;22.868;2023-03-31T05:37:31;101193.44;;;14.34;100.00
63808;BME280;49961;43.970;22.868;2023-03-31T05:38:31;101213.44;;;14.57;100.00
63808;BME280;49961;43.970;22.868;2023-03-31T05:39:33;101158.63;;;14.26;100.00
63808;BME280;49961;43.970;22.868;2023-03-31T05:40:34;101210.16;;;14.59;100.00
63808;BME280;49961;43.970;22.868;2023-03-31T05:41:34;101208.84;;;14.63;100.00
63808;BME280;49961;43.970;22.868;2023-03-31T05:42:35;101212.97;;;14.71;100.00
63808;BME280;49961;43.970;22.868;2023-03-31T05:43:37;101207.63;;;14.77;100.00
63808;BME280;49961;43.970;22.868;2023-03-31T05:44:38;101210.19;;;14.84;100.00
63808;BME280;49961;43.970;22.868;2023-03-31T05:45:38;101201.59;;;14.91;100.00
63808;BME280;49961;43.970;22.868;2023-03-31T05:46:39;101215.09;;;14.92;100.00
63808;BME280;49961;43.970;22.868;2023-03-31T05:47:40;101202.91;;;14.99;100.00
63808;BME280;49961;43.970;22.868;2023-03-31T05:48:40;101184.47;;;15.01;100.00
63808;BME280;49961;43.970;22.868;2023-03-31T05:49:41;101189.72;;;15.12;100.00
63808;BME280;49961;43.970;22.868;2023-03-31T05:50:41;101193.19;;;15.16;100.00
63808;BME280;49961;43.970;22.868;2023-03-31T05:51:43;101051.25;;;14.34;100.00
63808;BME280;49961;43.970;22.868;2023-03-31T05:52:43;101183.91;;;15.19;100.00
63808;BME280;49961;43.970;22.868;2023-03-31T05:53:44;101190.25;;;15.32;100.00
63808;BME280;49961;43.970;22.868;2023-03-31T05:54:45;101199.63;;;15.38;100.00
63808;BME280;49961;43.970;22.868;2023-03-31T05:55:45;101192.38;;;15.40;100.00
63808;BME280;49961;43.970;22.868;2023-03-31T05:56:45;101192.38;;;15.40;100.00
63808;BME280;49961;43.970;22.868;2023-03-31T05:57:46;101196.59;;;15.45;100.00
63808;BME280;49961;43.970;22.868;2023-03-31T05:58:46;101188.16;;;15.36;100.00
63808;BME280;49961;43.970;22.868;2023-03-31T05:59:47;101187.78;;;15.34;100.00
63808;BME280;49961;43.970;22.868;2023-03-31T06:00:47;101088.09;;;14.75;100.00
63808;BME280;49961;43.970;22.868;2023-03-31T06:01:47;101186.34;;;15.42;100.00
63808;BME280;49961;43.970;22.868;2023-03-31T06:02:48;101077.41;;;14.61;100.00
63808;BME280;49961;43.970;22.868;2023-03-31T06:03:49;101184.66;;;15.44;100.00
63808;BME280;49961;43.970;22.868;2023-03-31T06:04:49;101171.94;;;15.31;100.00
63808;BME280;49961;43.970;22.868;2023-03-31T06:05:51;101181.72;;;15.48;100.00
63808;BME280;49961;43.970;22.868;2023-03-31T06:06:53;101180.72;;;15.54;100.00
63808;BME280;49961;43.970;22.868;2023-03-31T06:07:55;101150.47;;;15.40;100.00
63808;BME280;49961;43.970;22.868;2023-03-31T06:08:55;101184.66;;;15.66;100.00